Time;durP1;ratioP1;P1;durP2;ratioP2;P2;SDS_P1;SDS_P2;PMS_P1;PMS_P2;Temp;Humidity;BMP_temperature;BMP_pressure;BME280_temperature;BME280_humidity;BME280_pressure;Samples;Min_cycle;Max_cycle;Signal;HPM_P1;HPM_P2
2022/01/29 00:00:34;;;;;;;10.60;8.40;;;4.20;99.90;;;;;;5095239;28;20898;-59
2022/01/29 00:03:01;;;;;;;8.87;6.93;;;4.20;99.90;;;;;;5096977;28;20541;-58
2022/01/29 00:05:29;;;;;;;9.03;7.57;;;4.20;99.90;;;;;;5096636;28;20534;-58
2022/01/29 00:07:56;;;;;;;17.60;8.77;;;4.30;99.90;;;;;;5095395;28;20449;-58
2022/01/29 00:10:23;;;;;;;8.93;7.17;;;4.20;99.90;;;;;;5096881;28;20465;-58
2022/01/29 00:12:51;;;;;;;9.27;7.80;;;4.20;99.90;;;;;;5096806;28;20857;-58
2022/01/29 00:15:20;;;;;;;13.53;9.90;;;4.30;99.90;;;;;;5094901;28;20448;-58
2022/01/29 00:17:47;;;;;;;11.70;8.53;;;4.10;99.90;;;;;;5096645;28;20451;-59
2022/01/29 00:20:14;;;;;;;16.67;9.73;;;4.10;99.90;;;;;;5096479;28;20547;-58
2022/01/29 00:22:41;;;;;;;12.00;7.57;;;4.20;99.90;;;;;;5095164;28;20458;-58
2022/01/29 00:25:10;;;;;;;12.83;8.30;;;4.20;99.90;;;;;;5096190;28;20931;-58
2022/01/29 00:27:37;;;;;;;12.43;8.00;;;4.30;99.90;;;;;;5096216;28;20520;-58
2022/01/29 00:30:10;;;;;;;8.70;7.87;;;4.30;99.90;;;;;;5094696;28;21004;-57
2022/01/29 00:32:37;;;;;;;8.50;7.70;;;4.40;99.90;;;;;;5096384;28;20479;-58
2022/01/29 00:35:06;;;;;;;15.27;8.90;;;4.40;99.90;;;;;;5096121;28;20447;-58
2022/01/29 00:37:33;;;;;;;11.03;8.80;;;4.40;99.90;;;;;;5094143;28;20530;-58
2022/01/29 00:40:01;;;;;;;11.47;8.47;;;4.20;99.90;;;;;;5096213;28;20452;-57
2022/01/29 00:42:28;;;;;;;11.27;9.17;;;4.20;99.90;;;;;;5095929;28;20965;-57
2022/01/29 00:44:55;;;;;;;12.27;9.10;;;4.30;99.90;;;;;;5094689;28;20504;-57
2022/01/29 00:47:23;;;;;;;11.40;8.30;;;4.20;99.90;;;;;;5095878;28;20542;-58
2022/01/29 00:49:51;;;;;;;8.47;7.67;;;4.20;99.90;;;;;;5095832;28;20872;-58
2022/01/29 00:52:18;;;;;;;13.80;8.97;;;4.20;99.90;;;;;;5094370;28;20483;-58
2022/01/29 00:54:45;;;;;;;11.40;8.10;;;4.20;99.90;;;;;;5095813;28;20454;-58
2022/01/29 00:57:13;;;;;;;12.50;7.70;;;4.20;99.90;;;;;;5095458;28;20452;-57
2022/01/29 00:59:40;;;;;;;10.97;7.70;;;4.20;99.90;;;;;;5094585;28;20526;-58
2022/01/29 01:02:08;;;;;;;10.30;8.30;;;4.30;99.90;;;;;;5095873;28;20460;-57
2022/01/29 01:04:39;;;;;;;8.77;7.80;;;4.40;99.90;;;;;;5095674;28;20474;-59
2022/01/29 01:07:06;;;;;;;10.13;7.87;;;4.30;99.90;;;;;;5093284;28;20443;-58
2022/01/29 01:09:34;;;;;;;12.70;8.90;;;4.20;99.90;;;;;;5095748;28;20447;-57
2022/01/29 01:12:01;;;;;;;8.27;7.47;;;4.30;99.90;;;;;;5095292;28;20508;-57
2022/01/29 01:14:28;;;;;;;8.17;7.30;;;4.20;99.90;;;;;;5093995;28;20542;-57
2022/01/29 01:16:55;;;;;;;9.30;7.70;;;4.10;99.90;;;;;;5095360;28;20886;-57
2022/01/29 01:19:26;;;;;;;12.23;7.83;;;4.10;99.90;;;;;;5095343;28;20447;-57
2022/01/29 01:21:59;;;;;;;8.50;7.77;;;4.30;99.90;;;;;;5093938;28;20853;-57
2022/01/29 01:24:27;;;;;;;9.67;8.00;;;4.30;99.90;;;;;;5095436;28;20534;-57
2022/01/29 01:26:54;;;;;;;9.60;7.97;;;4.40;99.90;;;;;;5094811;28;20486;-57
2022/01/29 01:29:21;;;;;;;8.90;7.07;;;4.40;99.90;;;;;;5094127;28;20448;-57
2022/01/29 01:31:49;;;;;;;9.20;7.10;;;4.40;99.90;;;;;;5094681;28;20840;-57
2022/01/29 01:34:19;;;;;;;8.90;8.00;;;4.20;99.90;;;;;;5095156;28;20443;-57
2022/01/29 01:36:50;;;;;;;9.10;7.77;;;4.30;99.90;;;;;;5093795;28;20447;-57
2022/01/29 01:39:23;;;;;;;7.63;6.83;;;4.40;99.90;;;;;;5094619;28;20518;-57
2022/01/29 01:41:56;;;;;;;7.90;6.60;;;4.40;99.90;;;;;;5095226;28;20458;-57
2022/01/29 01:44:23;;;;;;;10.20;6.90;;;4.40;99.90;;;;;;5093805;28;20451;-57
2022/01/29 01:46:50;;;;;;;8.37;6.60;;;4.50;99.90;;;;;;5094454;28;20443;-57
2022/01/29 01:49:19;;;;;;;6.47;5.87;;;4.50;99.90;;;;;;5094726;28;20451;-57
2022/01/29 01:51:46;;;;;;;9.03;6.93;;;4.60;99.90;;;;;;5092917;28;20502;-57
2022/01/29 01:54:13;;;;;;;7.00;6.33;;;4.40;99.90;;;;;;5094341;28;20458;-57
2022/01/29 01:56:42;;;;;;;9.63;7.13;;;4.30;99.90;;;;;;5094918;28;20812;-57
2022/01/29 01:59:09;;;;;;;9.90;7.60;;;4.20;99.90;;;;;;5093255;28;20486;-57
2022/01/29 02:01:36;;;;;;;9.77;6.77;;;4.20;99.90;;;;;;5094010;28;20472;-57
2022/01/29 02:04:03;;;;;;;8.57;6.43;;;4.20;99.90;;;;;;5094765;28;20526;-57
2022/01/29 02:06:31;;;;;;;7.43;6.57;;;4.20;99.90;;;;;;5092983;28;20442;-57
2022/01/29 02:09:00;;;;;;;9.37;7.73;;;4.40;99.90;;;;;;5094087;28;20462;-57
2022/01/29 02:11:29;;;;;;;13.80;9.20;;;4.40;99.90;;;;;;5094574;28;20499;-58
2022/01/29 02:13:59;;;;;;;13.97;8.37;;;4.40;99.90;;;;;;5093055;28;20540;-58
2022/01/29 02:16:28;;;;;;;9.20;7.50;;;4.30;99.90;;;;;;5094235;28;20473;-58
2022/01/29 02:18:55;;;;;;;8.47;7.13;;;4.40;99.90;;;;;;5093949;28;20934;-58
2022/01/29 02:21:27;;;;;;;11.70;7.90;;;4.40;99.90;;;;;;5092213;28;20474;-57
2022/01/29 02:23:55;;;;;;;9.03;8.07;;;4.50;99.90;;;;;;5094318;28;20427;-57
2022/01/29 02:26:23;;;;;;;9.87;7.43;;;4.50;99.90;;;;;;5093751;28;20486;-59
2022/01/29 02:28:50;;;;;;;9.23;7.63;;;4.50;99.90;;;;;;5092510;28;20482;-59
2022/01/29 02:31:17;;;;;;;10.53;8.37;;;4.40;99.90;;;;;;5093966;28;20822;-59
2022/01/29 02:33:44;;;;;;;11.10;8.23;;;4.40;99.90;;;;;;5093866;28;20536;-57
2022/01/29 02:36:11;;;;;;;9.70;7.90;;;4.50;99.90;;;;;;5092133;28;20542;-59
2022/01/29 02:38:38;;;;;;;11.93;9.10;;;4.40;99.90;;;;;;5093400;28;20451;-59
2022/01/29 02:41:07;;;;;;;12.57;8.77;;;4.40;99.90;;;;;;5093216;28;20538;-59
2022/01/29 02:43:41;;;;;;;10.50;7.53;;;4.30;99.90;;;;;;5092199;28;20573;-58
2022/01/29 02:46:20;;;;;;;8.97;7.00;;;4.20;99.90;;;;;;5094056;28;20435;-58
2022/01/29 02:48:49;;;;;;;9.40;7.20;;;4.20;99.90;;;;;;5092167;28;20428;-59
2022/01/29 02:51:17;;;;;;;9.93;6.37;;;4.20;99.90;;;;;;5093540;28;20471;-58
2022/01/29 02:53:45;;;;;;;7.67;5.90;;;4.10;99.90;;;;;;5093461;28;20562;-58
2022/01/29 02:56:14;;;;;;;7.10;6.40;;;4.00;99.90;;;;;;5091637;28;20463;-58
2022/01/29 02:58:41;;;;;;;6.77;6.10;;;4.00;99.90;;;;;;5093407;28;20447;-58
2022/01/29 03:01:09;;;;;;;10.23;6.83;;;4.00;99.90;;;;;;5093640;28;20465;-58
2022/01/29 03:03:36;;;;;;;7.23;6.63;;;4.00;99.90;;;;;;5092083;28;20443;-58
2022/01/29 03:06:08;;;;;;;11.90;7.37;;;4.00;99.90;;;;;;5093515;28;20454;-58
2022/01/29 03:08:35;;;;;;;9.47;6.87;;;4.00;99.90;;;;;;5093547;28;20438;-58
2022/01/29 03:11:02;;;;;;;7.60;6.90;;;4.00;99.90;;;;;;5091847;28;20497;-58
2022/01/29 03:13:30;;;;;;;6.90;6.23;;;4.00;99.90;;;;;;5093028;28;21111;-58
2022/01/29 03:15:58;;;;;;;7.20;6.50;;;4.00;99.90;;;;;;5093155;28;20475;-58
2022/01/29 03:18:25;;;;;;;8.67;6.73;;;4.10;99.90;;;;;;5091974;28;20448;-58
2022/01/29 03:20:52;;;;;;;6.50;5.60;;;4.10;99.90;;;;;;5092728;28;20983;-58
2022/01/29 03:23:19;;;;;;;7.63;6.53;;;4.10;99.90;;;;;;5093137;28;20501;-58
2022/01/29 03:25:46;;;;;;;6.53;5.30;;;4.00;99.90;;;;;;5091487;28;20462;-58
2022/01/29 03:28:13;;;;;;;7.13;6.27;;;4.00;99.90;;;;;;5093232;28;20446;-58
2022/01/29 03:30:42;;;;;;;10.23;5.70;;;4.00;99.90;;;;;;5092069;28;20447;-58
2022/01/29 03:33:09;;;;;;;6.77;5.43;;;4.10;99.90;;;;;;5091387;28;20570;-58
2022/01/29 03:35:36;;;;;;;8.37;5.63;;;4.10;99.90;;;;;;5092991;28;20458;-58
2022/01/29 03:38:04;;;;;;;6.00;5.40;;;4.00;99.90;;;;;;5092865;28;20783;-58
2022/01/29 03:40:32;;;;;;;9.50;5.93;;;4.20;99.90;;;;;;5091921;28;20448;-58
2022/01/29 03:43:07;;;;;;;8.70;6.20;;;4.10;99.90;;;;;;5092054;28;20934;-58
2022/01/29 03:45:35;;;;;;;6.50;5.40;;;4.10;99.90;;;;;;5092550;28;20427;-58
2022/01/29 03:48:04;;;;;;;7.63;5.50;;;4.10;99.90;;;;;;5091368;28;20526;-58
2022/01/29 03:50:31;;;;;;;6.97;6.27;;;4.00;99.90;;;;;;5092548;28;20455;-58
2022/01/29 03:52:58;;;;;;;6.07;5.47;;;3.90;99.90;;;;;;5092319;28;20479;-58
2022/01/29 03:55:26;;;;;;;6.63;5.50;;;3.90;99.90;;;;;;5091306;28;20458;-58
2022/01/29 03:57:53;;;;;;;7.47;5.33;;;4.00;99.90;;;;;;5092488;28;20840;-58
2022/01/29 04:00:20;;;;;;;5.83;5.33;;;4.00;99.90;;;;;;5092678;28;20475;-58
2022/01/29 04:02:47;;;;;;;6.83;5.20;;;4.00;99.90;;;;;;5091153;28;20543;-58
2022/01/29 04:05:16;;;;;;;10.67;5.50;;;4.00;99.90;;;;;;5092875;28;20443;-59
2022/01/29 04:07:43;;;;;;;7.77;5.80;;;4.00;99.90;;;;;;5092348;28;20547;-58
2022/01/29 04:10:12;;;;;;;6.73;4.77;;;4.00;99.90;;;;;;5091425;28;20451;-58
2022/01/29 04:12:43;;;;;;;5.67;4.90;;;4.10;99.90;;;;;;5092602;28;20570;-58
2022/01/29 04:15:10;;;;;;;7.03;4.67;;;4.10;99.90;;;;;;5092670;28;20464;-58
2022/01/29 04:17:37;;;;;;;8.10;5.93;;;4.00;99.90;;;;;;5090944;28;20458;-58
2022/01/29 04:20:05;;;;;;;5.60;5.00;;;4.00;99.90;;;;;;5092124;28;20453;-58
2022/01/29 04:22:34;;;;;;;5.70;5.03;;;4.10;99.90;;;;;;5092576;28;20467;-58
2022/01/29 04:25:01;;;;;;;6.70;5.17;;;4.20;99.90;;;;;;5090881;28;20951;-58
2022/01/29 04:27:36;;;;;;;5.00;4.60;;;4.30;99.90;;;;;;5092095;28;20957;-58
2022/01/29 04:30:08;;;;;;;5.23;4.73;;;4.20;99.90;;;;;;5092508;28;20783;-58
2022/01/29 04:32:56;;;;;;;4.83;4.40;;;4.20;99.90;;;;;;5090811;28;20467;-58
2022/01/29 04:35:23;;;;;;;4.80;4.40;;;4.10;99.90;;;;;;5092324;28;20432;-58
2022/01/29 04:37:52;;;;;;;5.37;4.33;;;4.10;99.90;;;;;;5092364;28;20469;-58
2022/01/29 04:40:20;;;;;;;4.27;3.90;;;4.20;99.90;;;;;;5091041;28;20530;-58
2022/01/29 04:42:48;;;;;;;6.70;5.13;;;4.20;99.90;;;;;;5095414;28;20546;-58
2022/01/29 04:45:15;;;;;;;4.73;4.13;;;4.20;99.90;;;;;;5096226;28;20778;-58
2022/01/29 04:47:43;;;;;;;5.20;4.70;;;4.20;99.90;;;;;;5094548;28;20440;-58
2022/01/29 04:50:11;;;;;;;8.00;5.40;;;4.10;99.90;;;;;;5095583;28;20444;-58
2022/01/29 04:52:38;;;;;;;8.93;4.40;;;4.00;99.90;;;;;;5096231;28;20542;-58
2022/01/29 04:55:08;;;;;;;6.50;5.00;;;4.00;99.90;;;;;;5094387;28;20451;-58
2022/01/29 04:57:37;;;;;;;6.83;4.30;;;4.10;99.90;;;;;;5095974;28;20508;-58
2022/01/29 05:00:08;;;;;;;7.93;4.93;;;4.10;99.90;;;;;;5095777;28;20459;-58
2022/01/29 05:02:36;;;;;;;11.13;6.33;;;4.10;99.90;;;;;;5094080;28;20578;-58
2022/01/29 05:05:03;;;;;;;9.20;6.63;;;4.20;99.90;;;;;;5095895;28;20450;-58
2022/01/29 05:07:31;;;;;;;8.37;6.43;;;4.20;99.90;;;;;;5095661;28;20453;-58
2022/01/29 05:09:58;;;;;;;11.87;9.10;;;4.10;99.90;;;;;;5094055;28;20991;-58
2022/01/29 05:12:32;;;;;;;11.30;8.00;;;4.10;99.90;;;;;;5095742;28;20474;-58
2022/01/29 05:15:14;;;;;;;13.23;8.67;;;4.00;99.90;;;;;;5095506;28;20863;-58
2022/01/29 05:28:46;;;;;;;10.90;7.87;;;3.90;99.90;;;;;;5095176;28;20454;-58
2022/01/29 05:31:13;;;;;;;15.03;9.23;;;3.80;99.90;;;;;;5094772;28;20459;-58
2022/01/29 05:33:41;;;;;;;10.90;9.13;;;3.80;99.90;;;;;;5093704;28;20985;-58
2022/01/29 05:36:08;;;;;;;10.30;8.53;;;3.80;99.90;;;;;;5094611;28;20961;-58
2022/01/29 05:38:35;;;;;;;11.07;8.80;;;3.70;99.90;;;;;;5094869;28;20447;-58
2022/01/29 05:41:03;;;;;;;10.87;9.03;;;3.80;99.90;;;;;;5093847;28;20459;-58
2022/01/29 05:43:31;;;;;;;9.83;8.80;;;3.80;99.90;;;;;;5094728;28;20443;-58
2022/01/29 05:45:59;;;;;;;11.97;9.63;;;3.70;99.90;;;;;;5094764;28;20448;-58
2022/01/29 05:48:26;;;;;;;16.20;10.50;;;3.60;99.90;;;;;;5093464;28;20479;-58
2022/01/29 05:50:55;;;;;;;12.07;9.80;;;3.70;99.90;;;;;;5094528;28;20474;-58
2022/01/29 05:53:22;;;;;;;14.00;10.30;;;3.80;99.90;;;;;;5094066;28;20479;-58
2022/01/29 05:55:49;;;;;;;17.10;9.83;;;3.90;99.90;;;;;;5093241;28;20462;-58
2022/01/29 05:58:16;;;;;;;13.67;10.63;;;3.60;99.90;;;;;;5094729;28;20448;-58
2022/01/29 06:00:43;;;;;;;15.03;11.33;;;3.50;99.90;;;;;;5094541;28;20450;-58
2022/01/29 06:03:12;;;;;;;14.23;11.00;;;3.30;99.90;;;;;;5093381;28;20439;-58
2022/01/29 06:05:40;;;;;;;17.80;12.50;;;3.30;99.90;;;;;;5094447;28;20455;-58
2022/01/29 06:08:07;;;;;;;13.43;11.60;;;3.20;99.90;;;;;;5094456;28;20535;-58
2022/01/29 06:10:34;;;;;;;16.17;11.87;;;3.20;99.90;;;;;;5093170;28;20443;-58
2022/01/29 06:13:04;;;;;;;18.70;11.40;;;3.10;99.90;;;;;;5093940;28;20439;-58
2022/01/29 06:15:33;;;;;;;14.17;11.87;;;3.20;99.90;;;;;;5094554;28;20534;-58
2022/01/29 06:18:00;;;;;;;16.57;12.83;;;3.30;99.90;;;;;;5092609;28;20448;-58
2022/01/29 06:20:29;;;;;;;13.37;11.50;;;3.60;99.90;;;;;;5093672;28;20968;-58
2022/01/29 06:22:56;;;;;;;14.13;12.63;;;3.60;99.90;;;;;;5094490;28;20483;-58
2022/01/29 06:25:23;;;;;;;13.37;10.20;;;3.30;99.90;;;;;;5092717;28;20455;-58
2022/01/29 06:27:51;;;;;;;15.83;11.97;;;3.20;99.90;;;;;;5093530;28;20489;-58
2022/01/29 06:30:18;;;;;;;16.90;13.60;;;3.30;99.90;;;;;;5094310;28;20444;-58
2022/01/29 06:32:45;;;;;;;19.93;12.73;;;3.30;99.90;;;;;;5092786;28;20558;-58
2022/01/29 06:35:13;;;;;;;17.80;13.27;;;3.20;99.90;;;;;;5093816;28;20514;-58
2022/01/29 06:37:41;;;;;;;20.47;14.90;;;3.30;99.90;;;;;;5093806;28;20443;-58
2022/01/29 06:40:10;;;;;;;13.03;11.70;;;3.10;99.90;;;;;;5092057;28;20530;-58
2022/01/29 06:42:37;;;;;;;18.30;13.70;;;3.20;99.90;;;;;;5093703;28;20828;-58
2022/01/29 06:45:05;;;;;;;18.73;13.00;;;3.30;99.90;;;;;;5093952;28;20534;-58
2022/01/29 06:47:33;;;;;;;16.33;11.40;;;3.30;99.90;;;;;;5092476;28;20475;-58
2022/01/29 06:50:00;;;;;;;13.43;10.90;;;3.40;99.90;;;;;;5093172;28;20501;-58
2022/01/29 06:52:27;;;;;;;17.43;12.40;;;3.40;99.90;;;;;;5093398;28;20474;-58
2022/01/29 06:54:56;;;;;;;16.37;12.37;;;3.50;99.90;;;;;;5092346;28;20507;-58
2022/01/29 06:57:23;;;;;;;15.27;12.70;;;3.60;99.90;;;;;;5093419;28;20434;-58
2022/01/29 06:59:50;;;;;;;17.27;13.13;;;3.60;99.90;;;;;;5093429;28;20432;-58
2022/01/29 07:02:17;;;;;;;13.87;11.07;;;3.50;99.90;;;;;;5091958;28;20471;-58
2022/01/29 07:04:44;;;;;;;14.70;10.97;;;3.30;99.90;;;;;;5092406;28;20451;-58
2022/01/29 07:07:12;;;;;;;15.60;12.20;;;3.20;99.90;;;;;;5093492;28;20448;-58
2022/01/29 07:09:39;;;;;;;17.97;11.77;;;3.20;99.90;;;;;;5092092;28;20447;-58
2022/01/29 07:12:10;;;;;;;12.67;11.10;;;3.30;99.90;;;;;;5093132;28;20464;-58
2022/01/29 07:14:39;;;;;;;15.10;11.20;;;3.30;99.90;;;;;;5093408;28;20555;-58
2022/01/29 07:17:10;;;;;;;15.73;11.93;;;3.40;99.90;;;;;;5091333;28;20937;-59
2022/01/29 07:19:38;;;;;;;16.60;11.97;;;3.50;99.90;;;;;;5093036;28;20933;-59
2022/01/29 07:22:06;;;;;;;15.80;11.10;;;3.50;99.90;;;;;;5092883;28;21082;-58
2022/01/29 07:24:34;;;;;;;14.50;11.17;;;3.70;99.90;;;;;;5091890;28;20482;-59
2022/01/29 07:27:01;;;;;;;12.97;9.53;;;3.70;99.90;;;;;;5093006;28;20977;-58
2022/01/29 07:29:30;;;;;;;13.53;9.87;;;3.80;99.90;;;;;;5093030;28;20817;-59
2022/01/29 07:31:58;;;;;;;13.90;9.40;;;3.90;99.90;;;;;;5091479;28;20467;-58
2022/01/29 07:34:26;;;;;;;10.43;9.20;;;3.80;99.90;;;;;;5092769;28;20475;-58
2022/01/29 07:36:54;;;;;;;8.20;7.30;;;3.90;99.90;;;;;;5092638;28;20534;-59
2022/01/29 07:39:22;;;;;;;8.50;6.93;;;3.90;99.90;;;;;;5091495;28;20449;-59
2022/01/29 07:41:50;;;;;;;8.87;7.13;;;3.90;99.90;;;;;;5092412;28;20580;-58
2022/01/29 07:44:17;;;;;;;9.67;6.73;;;4.00;99.90;;;;;;5092849;28;20454;-58
2022/01/29 07:46:46;;;;;;;7.67;6.97;;;4.10;99.90;;;;;;5091651;28;20448;-59
2022/01/29 07:49:13;;;;;;;8.50;5.80;;;4.00;99.90;;;;;;5092883;28;20452;-59
2022/01/29 07:51:41;;;;;;;10.07;6.30;;;4.10;99.90;;;;;;5092067;28;20498;-59
2022/01/29 07:54:08;;;;;;;6.80;5.60;;;4.20;99.90;;;;;;5091467;28;20479;-59
2022/01/29 07:56:36;;;;;;;7.17;5.90;;;4.30;99.90;;;;;;5092899;28;20546;-58
2022/01/29 07:59:04;;;;;;;6.53;5.17;;;4.10;99.90;;;;;;5092554;28;20771;-58
2022/01/29 08:01:32;;;;;;;9.70;5.03;;;4.10;99.90;;;;;;5091546;28;20486;-58
2022/01/29 08:04:00;;;;;;;5.60;4.37;;;4.10;99.90;;;;;;5092462;28;20446;-59
2022/01/29 08:06:29;;;;;;;5.33;4.27;;;4.20;99.90;;;;;;5092105;28;20455;-59
2022/01/29 08:08:57;;;;;;;5.03;4.30;;;4.40;99.90;;;;;;5091480;28;20452;-59
2022/01/29 08:11:24;;;;;;;6.50;5.40;;;4.40;99.90;;;;;;5092486;28;20490;-59
2022/01/29 08:13:52;;;;;;;4.77;4.37;;;4.30;99.90;;;;;;5092267;28;20443;-59
2022/01/29 08:16:19;;;;;;;5.07;4.50;;;4.30;99.90;;;;;;5092150;28;20535;-59
2022/01/29 08:18:46;;;;;;;5.53;4.40;;;4.20;99.90;;;;;;5096275;28;20451;-59
2022/01/29 08:21:15;;;;;;;5.40;4.03;;;4.30;99.90;;;;;;5096088;28;20499;-58
2022/01/29 08:23:43;;;;;;;4.20;3.80;;;4.30;99.90;;;;;;5095225;28;20538;-59
2022/01/29 08:26:10;;;;;;;4.60;4.20;;;4.30;99.90;;;;;;5095784;28;20495;-59
2022/01/29 08:28:37;;;;;;;6.27;4.07;;;4.40;99.90;;;;;;5096353;28;20456;-59
2022/01/29 08:31:05;;;;;;;6.77;4.37;;;4.50;99.90;;;;;;5094896;28;20506;-59
2022/01/29 08:33:32;;;;;;;4.60;4.00;;;4.40;99.90;;;;;;5096034;28;20883;-59
2022/01/29 08:35:59;;;;;;;4.70;3.90;;;4.50;99.90;;;;;;5095807;28;20540;-59
2022/01/29 08:38:28;;;;;;;5.40;3.70;;;4.60;99.90;;;;;;5094423;28;20473;-59
2022/01/29 08:40:58;;;;;;;4.53;3.60;;;4.80;99.90;;;;;;5095980;28;20474;-59
2022/01/29 08:43:25;;;;;;;4.10;3.13;;;5.00;99.90;;;;;;5096249;28;20530;-59
2022/01/29 08:45:53;;;;;;;7.30;4.10;;;5.00;99.90;;;;;;5094560;28;20439;-59
2022/01/29 08:48:20;;;;;;;5.37;4.17;;;5.20;99.90;;;;;;5094580;28;20446;-59
2022/01/29 08:50:48;;;;;;;5.30;3.80;;;5.30;99.90;;;;;;5095003;28;20461;-59
2022/01/29 08:53:16;;;;;;;4.27;3.97;;;5.40;99.90;;;;;;5093423;28;20929;-59
2022/01/29 08:55:45;;;;;;;7.00;4.10;;;5.50;99.90;;;;;;5095618;28;20581;-57
2022/01/29 08:58:13;;;;;;;4.00;3.60;;;5.40;99.90;;;;;;5095538;28;20534;-58
2022/01/29 09:00:44;;;;;;;4.77;4.30;;;5.50;99.90;;;;;;5093978;28;20454;-58
2022/01/29 09:03:13;;;;;;;4.20;3.83;;;5.50;99.90;;;;;;5095906;28;20463;-58
2022/01/29 09:05:40;;;;;;;4.80;4.33;;;5.40;99.90;;;;;;5095568;28;20451;-57
2022/01/29 09:08:07;;;;;;;7.63;3.80;;;5.50;99.90;;;;;;5094055;28;20446;-57
2022/01/29 09:10:35;;;;;;;5.70;3.70;;;5.50;99.90;;;;;;5095504;28;20534;-57
2022/01/29 09:13:04;;;;;;;7.03;4.80;;;5.60;99.90;;;;;;5095355;28;20465;-57
2022/01/29 09:15:31;;;;;;;4.30;3.90;;;5.60;99.90;;;;;;5093752;28;20479;-57
2022/01/29 09:17:59;;;;;;;4.20;3.80;;;5.70;99.90;;;;;;5093985;28;20447;-58
2022/01/29 09:20:26;;;;;;;6.30;4.60;;;5.70;99.90;;;;;;5094208;28;20524;-57
2022/01/29 09:22:54;;;;;;;4.70;4.17;;;5.70;99.90;;;;;;5112621;28;20463;-57
2022/01/29 09:25:21;;;;;;;5.63;4.60;;;5.70;99.90;;;;;;5115451;28;20446;-57
2022/01/29 09:27:48;;;;;;;9.20;4.73;;;5.60;99.90;;;;;;5113953;28;20481;-58
2022/01/29 09:30:17;;;;;;;5.43;4.83;;;5.70;99.90;;;;;;5112906;28;20455;-58
2022/01/29 09:32:44;;;;;;;5.93;4.53;;;5.70;99.90;;;;;;5114856;28;20454;-58
2022/01/29 09:35:11;;;;;;;5.60;4.50;;;5.70;99.90;;;;;;5115241;28;20486;-57
2022/01/29 09:37:38;;;;;;;6.20;5.60;;;5.90;99.90;;;;;;5113912;28;20446;-57
2022/01/29 09:40:07;;;;;;;5.10;4.70;;;6.00;99.90;;;;;;5114683;28;20491;-57
2022/01/29 09:42:36;;;;;;;5.40;4.90;;;6.00;99.90;;;;;;5115215;28;20474;-58
2022/01/29 09:45:04;;;;;;;5.00;4.50;;;6.10;99.90;;;;;;5113431;28;20468;-57
2022/01/29 09:47:32;;;;;;;10.10;5.13;;;6.30;99.90;;;;;;5094431;28;20470;-58
2022/01/29 09:50:00;;;;;;;6.27;4.73;;;6.40;99.90;;;;;;5093624;28;20815;-57
2022/01/29 09:52:28;;;;;;;7.03;4.30;;;6.40;99.90;;;;;;5092742;28;20471;-57
2022/01/29 09:54:55;;;;;;;4.63;4.20;;;6.60;99.90;;;;;;5094482;28;20564;-57
2022/01/29 09:57:22;;;;;;;8.27;4.97;;;6.60;99.90;;;;;;5094055;28;20412;-58
2022/01/29 09:59:50;;;;;;;5.07;3.70;;;6.60;99.90;;;;;;5094533;28;20450;-57
2022/01/29 10:02:18;;;;;;;8.03;4.70;;;6.70;99.90;;;;;;5113190;28;20478;-58
2022/01/29 10:04:51;;;;;;;5.63;4.73;;;6.80;99.90;;;;;;5101468;28;20469;-57
2022/01/29 10:07:20;;;;;;;5.27;4.77;;;7.00;99.90;;;;;;5101030;28;20450;-57
2022/01/29 10:09:48;;;;;;;6.30;4.60;;;7.20;99.90;;;;;;5101356;28;20684;-57
2022/01/29 10:12:22;;;;;;;4.67;4.27;;;7.10;99.90;;;;;;5100103;28;20467;-57
2022/01/29 10:14:51;;;;;;;6.83;4.60;;;7.20;99.90;;;;;;5097027;28;20478;-57
2022/01/29 10:17:40;;;;;;;6.03;4.83;;;7.20;99.90;;;;;;5098776;28;20450;-58
2022/01/29 10:20:17;;;;;;;9.50;4.37;;;7.30;99.90;;;;;;5099252;28;20451;-58
2022/01/29 10:22:48;;;;;;;4.40;4.00;;;7.70;99.90;;;;;;5102134;28;20463;-59
2022/01/29 10:25:18;;;;;;;6.93;4.50;;;7.80;99.90;;;;;;5100529;28;20447;-58
2022/01/29 10:28:07;;;;;;;6.80;4.90;;;7.60;99.90;;;;;;5101001;28;20502;-57
2022/01/29 10:30:36;;;;;;;5.80;4.97;;;7.30;99.90;;;;;;5099880;28;20448;-57
2022/01/29 10:33:20;;;;;;;6.37;5.00;;;7.40;99.90;;;;;;5102881;28;20525;-57
2022/01/29 10:35:51;;;;;;;5.87;5.10;;;7.40;99.90;;;;;;5102063;28;20493;-57
2022/01/29 10:38:20;;;;;;;5.47;3.67;;;7.20;99.90;;;;;;5102482;28;20986;-57
2022/01/29 10:40:58;;;;;;;5.70;3.73;;;7.40;99.90;;;;;;5102414;28;20449;-57
2022/01/29 10:43:25;;;;;;;4.40;3.93;;;7.50;99.90;;;;;;5101433;28;20452;-58
2022/01/29 10:45:53;;;;;;;7.03;4.00;;;7.80;99.90;;;;;;5100679;28;20438;-57
2022/01/29 10:48:20;;;;;;;5.67;3.87;;;7.70;99.90;;;;;;5102176;28;20935;-58
2022/01/29 10:51:12;;;;;;;5.07;4.57;;;7.70;99.90;;;;;;5100932;28;20863;-57
2022/01/29 10:53:40;;;;;;;4.33;3.93;;;7.40;99.90;;;;;;5102720;28;20533;-57
2022/01/29 10:56:12;;;;;;;4.37;3.70;;;7.50;99.90;;;;;;5095779;28;20985;-58
2022/01/29 10:58:42;;;;;;;6.43;3.20;;;7.50;99.90;;;;;;5097647;28;20522;-59
2022/01/29 11:01:22;;;;;;;3.50;3.20;;;7.60;99.90;;;;;;5098518;28;20536;-58
2022/01/29 11:03:50;;;;;;;5.20;3.30;;;7.70;99.90;;;;;;5101998;28;20470;-60
2022/01/29 11:06:22;;;;;;;4.33;3.13;;;7.70;99.90;;;;;;5098939;28;20454;-59
2022/01/29 11:08:53;;;;;;;3.80;3.37;;;7.70;99.90;;;;;;5102551;28;20487;-59
2022/01/29 11:11:21;;;;;;;4.40;4.00;;;7.80;99.90;;;;;;5102159;28;20819;-58
2022/01/29 11:13:50;;;;;;;3.83;3.37;;;7.70;99.90;;;;;;5100872;28;20443;-58
2022/01/29 11:16:18;;;;;;;3.60;3.23;;;7.70;99.90;;;;;;5100792;28;20476;-57
2022/01/29 11:18:45;;;;;;;4.53;3.00;;;7.60;99.90;;;;;;5101530;28;20534;-58
2022/01/29 11:21:12;;;;;;;6.63;3.40;;;7.70;99.90;;;;;;5100622;28;21007;-59
2022/01/29 11:23:42;;;;;;;2.80;2.60;;;7.50;99.90;;;;;;5099475;28;20533;-57
2022/01/29 11:26:10;;;;;;;7.50;3.20;;;7.50;99.90;;;;;;5100849;28;20475;-59
2022/01/29 11:28:37;;;;;;;3.27;2.97;;;7.40;99.90;;;;;;5098458;28;20482;-57
2022/01/29 11:31:24;;;;;;;4.27;2.97;;;7.50;99.90;;;;;;5100657;28;20508;-57
2022/01/29 11:34:25;;;;;;;3.20;2.80;;;7.40;99.90;;;;;;5098819;28;20484;-57
2022/01/29 11:37:05;;;;;;;3.10;2.80;;;7.50;99.90;;;;;;5090361;28;20481;-56
2022/01/29 11:39:36;;;;;;;2.87;2.40;;;7.50;99.90;;;;;;5092183;28;20453;-60
2022/01/29 11:42:32;;;;;;;2.70;2.40;;;7.40;99.90;;;;;;5091269;28;20958;-62
2022/01/29 11:45:38;;;;;;;2.53;2.33;;;7.40;99.90;;;;;;5091181;28;20975;-64
2022/01/29 11:48:07;;;;;;;2.87;2.57;;;7.40;99.90;;;;;;5095272;28;20894;-58
2022/01/29 11:50:46;;;;;;;3.70;3.27;;;7.40;99.90;;;;;;5102935;28;20442;-58
2022/01/29 11:53:14;;;;;;;2.87;2.10;;;7.50;99.90;;;;;;5096063;28;20465;-61
2022/01/29 11:55:45;;;;;;;3.30;2.50;;;7.60;99.90;;;;;;5101699;28;20490;-58
2022/01/29 11:58:27;;;;;;;2.80;2.60;;;7.70;99.90;;;;;;5097413;28;20459;-56
2022/01/29 12:00:55;;;;;;;3.93;2.57;;;7.90;99.90;;;;;;5100371;28;20483;-57
2022/01/29 12:03:54;;;;;;;3.13;2.50;;;7.70;99.90;;;;;;5097522;28;20469;-58
2022/01/29 12:06:25;;;;;;;3.70;2.70;;;7.50;99.90;;;;;;5102256;28;20917;-57
2022/01/29 12:09:33;;;;;;;2.60;2.40;;;7.60;99.90;;;;;;5102239;28;20466;-58
2022/01/29 12:12:26;;;;;;;5.00;2.77;;;7.70;99.90;;;;;;5099628;28;21020;-57
2022/01/29 12:14:54;;;;;;;2.77;2.57;;;7.50;99.90;;;;;;5102037;28;20449;-56
2022/01/29 12:17:37;;;;;;;3.00;2.70;;;7.50;99.90;;;;;;5101382;28;20448;-58
2022/01/29 12:20:07;;;;;;;3.03;2.70;;;7.40;99.90;;;;;;5094862;28;20459;-58
2022/01/29 12:22:36;;;;;;;3.63;2.87;;;7.20;99.90;;;;;;5100576;28;21077;-59
2022/01/29 12:25:06;;;;;;;2.37;2.17;;;7.10;99.90;;;;;;5094348;28;20452;-58
2022/01/29 12:27:48;;;;;;;3.00;2.80;;;7.20;99.90;;;;;;5100302;28;20822;-58
2022/01/29 12:30:19;;;;;;;2.70;2.40;;;7.20;99.90;;;;;;5100387;28;20810;-61
2022/01/29 12:33:12;;;;;;;4.00;2.70;;;7.30;99.90;;;;;;5101296;28;20471;-64
2022/01/29 12:35:41;;;;;;;2.93;2.63;;;7.20;99.90;;;;;;5083891;28;20474;-59
2022/01/29 12:38:10;;;;;;;2.57;2.37;;;7.10;99.90;;;;;;5102463;28;20533;-58
2022/01/29 12:40:40;;;;;;;3.73;3.07;;;7.20;99.90;;;;;;5098887;28;20451;-58
2022/01/29 12:43:25;;;;;;;2.73;2.33;;;7.30;99.90;;;;;;5100551;28;20442;-58
2022/01/29 12:45:54;;;;;;;2.83;2.63;;;7.50;99.90;;;;;;5099090;28;20461;-58
2022/01/29 12:48:22;;;;;;;3.63;3.33;;;7.70;99.90;;;;;;5101330;28;21031;-59
2022/01/29 12:50:49;;;;;;;3.33;3.10;;;7.70;99.90;;;;;;5099734;28;20538;-60
2022/01/29 12:53:18;;;;;;;2.77;2.53;;;7.50;99.90;;;;;;5099486;28;20452;-60
2022/01/29 12:55:58;;;;;;;2.80;2.50;;;7.30;99.90;;;;;;5098256;28;20577;-60
2022/01/29 12:58:32;;;;;;;9.80;2.70;;;7.10;99.90;;;;;;5098745;28;21175;-58
2022/01/29 13:01:04;;;;;;;4.37;2.70;;;7.20;99.90;;;;;;5096336;28;20471;-59
2022/01/29 13:03:31;;;;;;;4.90;3.07;;;7.30;99.90;;;;;;5095165;28;20534;-59
2022/01/29 13:06:07;;;;;;;2.73;2.30;;;7.20;99.90;;;;;;5105120;28;20453;-62
2022/01/29 13:08:35;;;;;;;3.33;3.03;;;7.30;99.90;;;;;;5104818;28;20446;-62
2022/01/29 13:11:02;;;;;;;4.40;2.40;;;7.30;99.90;;;;;;5102897;28;20455;-63
2022/01/29 13:13:33;;;;;;;2.57;2.37;;;7.20;99.90;;;;;;5102514;28;20565;-64
2022/01/29 13:16:01;;;;;;;5.10;2.80;;;7.10;99.90;;;;;;5104022;28;20489;-59